createdAt,value
2022-09-25T00:01:11.048Z,36.04
2022-09-25T00:03:38.330Z,35.84
2022-09-25T00:06:08.092Z,35.52
2022-09-25T00:08:35.634Z,35.75
2022-09-25T00:11:13.318Z,35.37
2022-09-25T00:13:40.844Z,35.57
2022-09-25T00:16:10.706Z,35.74
2022-09-25T00:18:57.783Z,35.70
2022-09-25T00:21:31.006Z,35.71
2022-09-25T00:24:00.483Z,35.81
2022-09-25T00:26:28.772Z,35.95
2022-09-25T00:28:55.804Z,35.89
2022-09-25T00:31:24.641Z,35.91
2022-09-25T00:33:52.124Z,35.48
2022-09-25T00:36:19.667Z,35.52
2022-09-25T00:38:48.534Z,35.70
2022-09-25T00:41:20.383Z,35.40
2022-09-25T00:43:50.624Z,35.69
2022-09-25T00:46:31.101Z,35.64
2022-09-25T00:49:19.770Z,35.16
2022-09-25T00:52:02.044Z,35.56
2022-09-25T00:54:34.590Z,35.52
2022-09-25T00:57:13.314Z,35.71
2022-09-25T00:59:44.215Z,35.24
2022-09-25T01:02:14.613Z,35.40
2022-09-25T01:04:46.161Z,35.56
2022-09-25T01:07:19.313Z,35.64
2022-09-25T01:09:46.619Z,35.29
2022-09-25T01:12:13.069Z,35.80
2022-09-25T01:14:40.422Z,35.26
2022-09-25T01:17:26.075Z,35.09
2022-09-25T01:19:58.411Z,35.23
2022-09-25T01:22:55.166Z,35.18
2022-09-25T01:25:31.326Z,35.41
2022-09-25T01:28:06.875Z,35.07
2022-09-25T01:30:41.010Z,35.15
2022-09-25T01:33:13.726Z,35.56
2022-09-25T01:35:40.044Z,35.39
2022-09-25T01:38:38.311Z,35.28
2022-09-25T01:41:08.496Z,35.08
2022-09-25T01:43:39.670Z,35.36
2022-09-25T01:46:21.700Z,35.21
2022-09-25T01:48:54.846Z,35.19
2022-09-25T01:51:38.166Z,35.24
2022-09-25T01:54:10.573Z,35.03
2022-09-25T01:56:54.309Z,35.02
2022-09-25T01:59:39.183Z,35.12
2022-09-25T02:02:10.633Z,35.06
2022-09-25T02:04:42.085Z,35.07
2022-09-25T02:07:12.869Z,35.04
2022-09-25T02:09:50.355Z,34.84
2022-09-25T02:12:43.333Z,35.04
2022-09-25T02:15:16.044Z,34.97
2022-09-25T02:18:10.123Z,35.04
2022-09-25T02:20:37.315Z,34.96
2022-09-25T02:23:10.075Z,34.93
2022-09-25T02:25:42.520Z,34.74
2022-09-25T02:28:11.097Z,34.78
2022-09-25T02:30:37.602Z,35.03
2022-09-25T02:33:04.070Z,34.79
2022-09-25T02:35:31.967Z,34.72
2022-09-25T02:37:58.526Z,34.88
2022-09-25T02:40:38.736Z,34.57
2022-09-25T02:43:24.043Z,34.55
2022-09-25T02:46:02.356Z,34.69
2022-09-25T02:48:49.438Z,34.75
2022-09-25T02:51:55.527Z,34.65
2022-09-25T02:54:30.572Z,34.87
2022-09-25T02:57:06.134Z,34.62
2022-09-25T02:59:42.692Z,34.54
2022-09-25T03:02:12.100Z,34.65
2022-09-25T03:04:42.299Z,34.80
2022-09-25T03:07:08.685Z,34.87
2022-09-25T03:09:38.623Z,34.51
2022-09-25T03:12:05.149Z,34.65
2022-09-25T03:14:32.094Z,34.89
2022-09-25T03:17:03.626Z,34.89
2022-09-25T03:19:30.180Z,34.80
2022-09-25T03:21:57.098Z,34.83
2022-09-25T03:24:23.787Z,34.57
2022-09-25T03:26:50.218Z,34.76
2022-09-25T03:29:17.305Z,34.84
2022-09-25T03:31:45.440Z,34.53
2022-09-25T03:34:13.622Z,34.77
2022-09-25T03:36:40.629Z,34.51
2022-09-25T03:39:10.848Z,34.76
2022-09-25T03:41:37.403Z,34.59
2022-09-25T03:44:04.354Z,34.42
2022-09-25T03:46:33.449Z,34.76
2022-09-25T03:49:00.387Z,34.46
2022-09-25T03:51:28.440Z,34.43
2022-09-25T03:53:55.524Z,34.74
2022-09-25T03:56:24.458Z,34.60
2022-09-25T03:58:54.207Z,34.30
2022-09-25T04:01:21.865Z,34.44
2022-09-25T04:03:49.517Z,34.59
2022-09-25T04:06:19.079Z,34.83
2022-09-25T04:08:47.480Z,34.59
2022-09-25T04:11:15.660Z,34.84
2022-09-25T04:13:44.134Z,34.76
2022-09-25T04:16:12.136Z,34.45
2022-09-25T04:18:40.619Z,34.67
2022-09-25T04:21:09.550Z,34.67
2022-09-25T04:23:37.240Z,34.65
2022-09-25T04:26:06.566Z,34.45
2022-09-25T04:28:33.370Z,34.21
2022-09-25T04:31:00.620Z,34.46
2022-09-25T04:33:45.401Z,34.65
2022-09-25T04:36:12.340Z,34.47
2022-09-25T04:38:39.066Z,34.58
2022-09-25T04:41:06.132Z,34.78
2022-09-25T04:43:33.123Z,34.44
2022-09-25T04:46:05.025Z,34.60
2022-09-25T04:48:32.280Z,34.50
2022-09-25T04:50:58.847Z,34.48
2022-09-25T04:53:30.121Z,34.68
2022-09-25T04:56:05.398Z,34.55
2022-09-25T04:58:31.963Z,34.51
2022-09-25T05:01:06.685Z,34.30
2022-09-25T05:03:33.232Z,34.44
2022-09-25T05:05:59.958Z,35.29
2022-09-25T05:08:27.604Z,34.79
2022-09-25T05:10:54.449Z,34.75
2022-09-25T05:13:20.890Z,34.79
2022-09-25T05:15:47.269Z,34.97
2022-09-25T05:18:18.352Z,34.73
2022-09-25T05:20:45.220Z,34.67
2022-09-25T05:23:11.739Z,34.61
2022-09-25T05:25:38.328Z,34.54
2022-09-25T05:28:04.840Z,34.69
2022-09-25T05:30:34.064Z,34.70
2022-09-25T05:33:00.533Z,34.85
2022-09-25T05:35:29.531Z,34.98
2022-09-25T05:37:56.069Z,34.51
2022-09-25T05:40:24.027Z,34.70
2022-09-25T05:42:51.954Z,34.89
2022-09-25T05:45:20.138Z,34.90
2022-09-25T05:47:47.200Z,34.71
2022-09-25T05:50:16.172Z,34.48
2022-09-25T05:52:42.947Z,34.61
2022-09-25T05:55:10.653Z,34.68
2022-09-25T05:57:38.078Z,34.46
2022-09-25T06:00:07.972Z,34.59
2022-09-25T06:02:34.596Z,34.40
2022-09-25T06:05:01.061Z,34.87
2022-09-25T06:07:27.443Z,34.57
2022-09-25T06:09:53.827Z,34.56
2022-09-25T06:12:20.255Z,34.73
2022-09-25T06:14:46.703Z,34.57
2022-09-25T06:17:13.761Z,34.44
2022-09-25T06:19:40.143Z,34.57
2022-09-25T06:22:06.523Z,34.66
2022-09-25T06:24:32.912Z,34.30
2022-09-25T06:26:59.279Z,34.79
2022-09-25T06:29:25.676Z,34.57
2022-09-25T06:31:53.084Z,34.31
2022-09-25T06:34:19.756Z,34.38
2022-09-25T06:36:46.138Z,34.78
2022-09-25T06:39:12.523Z,34.67
2022-09-25T06:41:39.466Z,34.91
2022-09-25T06:44:09.102Z,34.84
2022-09-25T06:46:36.640Z,34.48
2022-09-25T06:49:03.311Z,34.45
2022-09-25T06:51:35.177Z,34.48
2022-09-25T06:54:01.845Z,34.77
2022-09-25T06:56:28.253Z,34.73
2022-09-25T06:58:54.779Z,34.57
2022-09-25T07:01:21.194Z,35.13
2022-09-25T07:03:49.149Z,34.65
2022-09-25T07:06:18.544Z,34.38
2022-09-25T07:08:46.255Z,34.43
2022-09-25T07:11:18.765Z,34.54
2022-09-25T07:13:45.476Z,34.78
2022-09-25T07:16:15.735Z,34.30
2022-09-25T07:18:43.700Z,34.82
2022-09-25T07:21:18.531Z,34.57
2022-09-25T07:23:48.654Z,34.75
2022-09-25T07:26:22.257Z,34.75
2022-09-25T07:29:08.957Z,34.85
2022-09-25T07:31:37.787Z,35.24
2022-09-25T07:34:09.234Z,35.39
2022-09-25T07:36:38.638Z,35.41
2022-09-25T07:39:06.224Z,35.50
2022-09-25T07:41:33.414Z,35.48
2022-09-25T07:46:46.984Z,35.38
2022-09-25T07:49:13.892Z,35.25
2022-09-25T07:51:40.456Z,35.24
2022-09-25T07:54:07.125Z,35.37
2022-09-25T07:56:38.141Z,35.16
2022-09-25T07:59:04.687Z,35.69
2022-09-25T08:01:31.128Z,35.31
2022-09-25T08:03:57.534Z,35.58
2022-09-25T08:06:23.917Z,35.45
2022-09-25T08:08:50.295Z,35.59
2022-09-25T08:11:18.179Z,35.77
2022-09-25T08:13:45.759Z,35.68
2022-09-25T08:16:15.543Z,35.44
2022-09-25T08:18:45.397Z,35.58
2022-09-25T08:21:14.305Z,35.32
2022-09-25T08:23:47.427Z,35.22
2022-09-25T08:26:14.294Z,35.58
2022-09-25T08:28:40.877Z,34.98
2022-09-25T08:31:08.744Z,35.66
2022-09-25T08:33:35.193Z,35.65
2022-09-25T08:36:03.664Z,35.40
2022-09-25T08:38:32.692Z,35.12
2022-09-25T08:41:07.895Z,35.12
2022-09-25T08:43:40.809Z,34.99
2022-09-25T08:46:41.169Z,35.09
2022-09-25T08:49:11.150Z,35.14
2022-09-25T08:51:45.642Z,35.22
2022-09-25T08:54:23.927Z,35.19
2022-09-25T08:57:01.357Z,34.79
2022-09-25T08:59:36.267Z,35.40
2022-09-25T09:02:13.627Z,35.17
2022-09-25T09:04:56.004Z,35.32
2022-09-25T09:07:39.117Z,35.33
2022-09-25T09:10:24.346Z,35.82
2022-09-25T09:12:58.356Z,35.40
2022-09-25T09:15:30.547Z,35.72
2022-09-25T09:18:01.277Z,35.71
2022-09-25T09:20:49.059Z,35.13
2022-09-25T09:23:19.402Z,35.60
2022-09-25T09:26:05.868Z,35.15
2022-09-25T09:28:57.218Z,35.30
2022-09-25T09:31:49.912Z,35.42
2022-09-25T09:35:04.369Z,34.83
2022-09-25T09:37:31.654Z,35.23
2022-09-25T09:40:16.231Z,35.31
2022-09-25T09:42:45.581Z,35.20
2022-09-25T09:45:30.266Z,35.01
2022-09-25T09:48:12.629Z,34.89
2022-09-25T09:50:49.871Z,34.93
2022-09-25T09:53:28.804Z,34.70
2022-09-25T09:56:06.442Z,34.67
2022-09-25T09:59:04.291Z,34.72
2022-09-25T10:01:41.367Z,34.72
2022-09-25T10:04:15.949Z,34.62
2022-09-25T10:06:48.219Z,34.77
2022-09-25T10:09:16.417Z,34.47
2022-09-25T10:11:45.701Z,34.50
2022-09-25T10:14:20.989Z,34.54
2022-09-25T10:16:52.076Z,34.60
2022-09-25T10:19:22.415Z,34.44
2022-09-25T10:21:57.710Z,34.62
2022-09-25T10:24:53.353Z,34.19
2022-09-25T10:27:30.482Z,33.98
2022-09-25T10:30:06.138Z,34.47
2022-09-25T10:32:34.966Z,34.30
2022-09-25T10:35:01.722Z,34.25
2022-09-25T10:37:34.900Z,34.34
2022-09-25T10:40:07.012Z,34.32
2022-09-25T10:42:40.928Z,34.04
2022-09-25T10:45:22.331Z,34.42
2022-09-25T10:48:09.458Z,34.19
2022-09-25T10:50:39.030Z,34.19
2022-09-25T10:53:07.413Z,34.03
2022-09-25T10:55:37.183Z,34.22
2022-09-25T10:58:43.657Z,33.91
2022-09-25T11:01:13.483Z,34.21
2022-09-25T11:03:48.551Z,33.84
2022-09-25T11:06:27.247Z,34.22
2022-09-25T11:09:09.196Z,33.68
2022-09-25T11:11:37.628Z,34.01
2022-09-25T11:14:06.981Z,33.98
2022-09-25T11:16:50.503Z,34.04
2022-09-25T11:19:27.024Z,33.90
2022-09-25T11:22:00.004Z,34.10
2022-09-25T11:24:48.255Z,33.90
2022-09-25T11:27:20.227Z,34.13
2022-09-25T11:30:01.360Z,33.96
2022-09-25T11:32:57.002Z,34.03
2022-09-25T11:35:38.903Z,34.19
2022-09-25T11:38:59.238Z,33.67
2022-09-25T11:41:45.287Z,34.00
2022-09-25T11:44:40.248Z,34.00
2022-09-25T11:47:15.911Z,34.07
2022-09-25T11:49:42.747Z,34.19
2022-09-25T11:52:18.451Z,33.98
2022-09-25T11:55:17.143Z,34.06
2022-09-25T11:57:58.438Z,33.62
2022-09-25T12:00:40.924Z,33.93
2022-09-25T12:03:28.347Z,33.54
2022-09-25T12:06:33.858Z,33.67
2022-09-25T12:09:10.159Z,33.36
2022-09-25T12:11:52.869Z,33.10
2022-09-25T12:14:26.674Z,33.14
2022-09-25T12:17:01.487Z,33.02
2022-09-25T12:19:49.301Z,32.95
2022-09-25T12:22:44.419Z,33.02
2022-09-25T12:25:16.860Z,33.01
2022-09-25T12:27:54.908Z,32.49
2022-09-25T12:30:23.960Z,32.75
2022-09-25T12:33:36.237Z,32.89
2022-09-25T12:36:16.035Z,32.88
2022-09-25T12:38:55.874Z,32.90
2022-09-25T12:41:28.681Z,32.85
2022-09-25T12:44:05.119Z,32.91
2022-09-25T12:46:51.898Z,32.72
2022-09-25T12:49:34.371Z,32.85
2022-09-25T12:52:27.467Z,32.66
2022-09-25T12:55:04.085Z,32.56
2022-09-25T12:57:45.641Z,32.79
2022-09-25T13:00:20.952Z,32.53
2022-09-25T13:03:08.894Z,32.94
2022-09-25T13:05:44.286Z,32.85
2022-09-25T13:08:27.363Z,32.51
2022-09-25T13:11:21.812Z,32.67
2022-09-25T13:13:55.300Z,32.47
2022-09-25T13:16:22.265Z,32.38
2022-09-25T13:19:11.138Z,32.52
2022-09-25T13:21:45.022Z,32.44
2022-09-25T13:24:15.675Z,32.19
2022-09-25T13:26:52.691Z,32.23
2022-09-25T13:29:38.736Z,32.17
2022-09-25T13:32:07.353Z,31.73
2022-09-25T13:34:41.967Z,32.05
2022-09-25T13:37:11.230Z,32.00
2022-09-25T13:40:03.666Z,31.80
2022-09-25T13:42:39.687Z,31.62
2022-09-25T13:45:26.046Z,31.98
2022-09-25T13:48:07.464Z,31.91
2022-09-25T13:50:38.641Z,31.74
2022-09-25T13:53:24.885Z,31.65
2022-09-25T13:55:57.286Z,31.77
2022-09-25T13:58:25.961Z,31.82
2022-09-25T14:00:58.718Z,31.75
2022-09-25T14:03:43.990Z,31.67
2022-09-25T14:06:17.517Z,31.69
2022-09-25T14:08:44.832Z,31.73
2022-09-25T14:11:16.528Z,31.67
2022-09-25T14:13:46.282Z,31.62
2022-09-25T14:16:52.870Z,31.46
2022-09-25T14:19:34.745Z,31.69
2022-09-25T14:22:04.184Z,31.68
2022-09-25T14:24:31.331Z,31.65
2022-09-25T14:27:01.239Z,31.53
2022-09-25T14:29:31.736Z,31.61
2022-09-25T14:32:10.146Z,31.60
2022-09-25T14:35:13.839Z,31.85
2022-09-25T14:38:10.035Z,31.97
2022-09-25T14:40:43.431Z,31.91
2022-09-25T14:43:24.823Z,31.79
2022-09-25T14:46:01.371Z,31.65
2022-09-25T14:48:46.080Z,31.91
2022-09-25T14:51:24.657Z,31.58
2022-09-25T14:53:57.243Z,31.67
2022-09-25T14:56:26.170Z,31.63
2022-09-25T14:58:57.908Z,31.39
2022-09-25T15:01:29.283Z,30.94
2022-09-25T15:04:05.430Z,30.44
2022-09-25T15:06:34.914Z,29.85
2022-09-25T15:09:02.904Z,29.49
2022-09-25T15:11:43.307Z,29.34
2022-09-25T15:14:21.577Z,28.86
2022-09-25T15:17:08.220Z,28.75
2022-09-25T15:19:43.502Z,28.40
2022-09-25T15:22:13.856Z,28.23
2022-09-25T15:24:47.857Z,28.56
2022-09-25T15:27:16.150Z,28.66
2022-09-25T15:29:45.326Z,28.68
2022-09-25T15:32:21.699Z,28.42
2022-09-25T15:34:48.891Z,28.75
2022-09-25T15:37:27.749Z,28.48
2022-09-25T15:39:54.273Z,28.95
2022-09-25T15:42:21.159Z,29.08
2022-09-25T15:44:48.924Z,28.80
2022-09-25T15:47:36.707Z,28.96
2022-09-25T15:50:06.199Z,29.56
2022-09-25T15:52:33.991Z,29.41
2022-09-25T15:55:14.575Z,29.61
2022-09-25T15:57:42.131Z,29.98
2022-09-25T16:00:36.820Z,29.77
2022-09-25T16:03:36.444Z,30.26
2022-09-25T16:06:03.798Z,30.47
2022-09-25T16:08:36.202Z,30.04
2022-09-25T16:11:09.283Z,30.11
2022-09-25T16:13:40.910Z,30.17
2022-09-25T16:16:21.437Z,29.83
2022-09-25T16:18:48.599Z,30.33
2022-09-25T16:21:18.075Z,30.50
2022-09-25T16:23:55.772Z,30.31
2022-09-25T16:26:25.448Z,30.44
2022-09-25T16:29:14.131Z,30.06
2022-09-25T16:31:42.702Z,30.22
2022-09-25T16:34:19.167Z,30.32
2022-09-25T16:36:47.395Z,30.71
2022-09-25T16:39:22.873Z,30.81
2022-09-25T16:41:50.173Z,30.61
2022-09-25T16:44:21.016Z,30.72
2022-09-25T16:47:12.506Z,30.46
2022-09-25T16:49:38.880Z,30.78
2022-09-25T16:52:08.326Z,30.30
2022-09-25T16:54:37.799Z,31.35
2022-09-25T16:57:04.802Z,30.81
2022-09-25T16:59:31.264Z,30.91
2022-09-25T17:02:01.872Z,30.64
2022-09-25T17:04:31.072Z,30.39
2022-09-25T17:06:58.512Z,30.47
2022-09-25T17:09:31.346Z,30.29
2022-09-25T17:12:05.088Z,30.29
2022-09-25T17:14:31.712Z,30.77
2022-09-25T17:16:58.941Z,30.87
2022-09-25T17:19:25.609Z,31.12
2022-09-25T17:21:53.414Z,32.02
2022-09-25T17:24:27.931Z,31.74
2022-09-25T17:26:54.669Z,31.70
2022-09-25T17:29:21.591Z,32.28
2022-09-25T17:31:47.976Z,32.53
2022-09-25T17:34:19.174Z,32.02
2022-09-25T17:36:45.932Z,32.45
2022-09-25T17:39:13.183Z,32.44
2022-09-25T17:41:40.134Z,32.91
2022-09-25T17:44:08.844Z,32.69
2022-09-25T17:46:36.246Z,32.51
2022-09-25T17:49:03.859Z,33.00
2022-09-25T17:51:30.682Z,33.01
2022-09-25T17:53:59.113Z,33.18
2022-09-25T17:56:29.843Z,33.50
2022-09-25T17:58:57.406Z,33.19
2022-09-25T18:01:27.019Z,33.63
2022-09-25T18:03:55.826Z,33.35
2022-09-25T18:06:23.604Z,33.62
2022-09-25T18:08:51.327Z,33.59
2022-09-25T18:11:18.271Z,33.80
2022-09-25T18:13:44.774Z,33.72
2022-09-25T18:16:16.508Z,33.78
2022-09-25T18:19:02.856Z,33.71
2022-09-25T18:21:47.640Z,33.75
2022-09-25T18:24:14.039Z,33.83
2022-09-25T18:26:42.325Z,34.18
2022-09-25T18:29:12.912Z,33.90
2022-09-25T18:31:39.546Z,34.38
2022-09-25T18:34:05.974Z,34.26
2022-09-25T18:36:32.373Z,34.10
2022-09-25T18:38:58.752Z,34.00
2022-09-25T18:41:25.480Z,34.70
2022-09-25T18:43:51.851Z,34.29
2022-09-25T18:46:18.742Z,34.41
2022-09-25T18:48:47.726Z,34.67
2022-09-25T18:51:15.898Z,34.85
2022-09-25T18:53:42.647Z,35.33
2022-09-25T18:56:09.376Z,35.04
2022-09-25T18:58:36.033Z,34.91
2022-09-25T19:01:02.506Z,35.34
2022-09-25T19:03:29.343Z,35.07
2022-09-25T19:06:01.319Z,35.31
2022-09-25T19:08:28.019Z,34.91
2022-09-25T19:10:54.374Z,35.30
2022-09-25T19:13:21.429Z,35.46
2022-09-25T19:15:47.913Z,35.15
2022-09-25T19:18:14.427Z,35.67
2022-09-25T19:20:51.699Z,35.21
2022-09-25T19:23:18.800Z,35.66
2022-09-25T19:26:01.084Z,35.20
2022-09-25T19:28:29.955Z,35.55
2022-09-25T19:31:05.119Z,35.61
2022-09-25T19:33:34.627Z,35.57
2022-09-25T19:36:05.151Z,35.80
2022-09-25T19:38:36.879Z,35.72
2022-09-25T19:41:10.752Z,35.86
2022-09-25T19:43:37.485Z,36.09
2022-09-25T19:46:04.591Z,36.14
2022-09-25T19:48:32.737Z,36.01
2022-09-25T19:50:59.157Z,36.02
2022-09-25T19:53:25.527Z,35.97
2022-09-25T19:55:54.061Z,36.30
2022-09-25T19:58:23.720Z,36.34
2022-09-25T20:00:51.052Z,36.58
2022-09-25T20:03:18.118Z,36.32
2022-09-25T20:05:44.752Z,36.60
2022-09-25T20:08:11.306Z,36.75
2022-09-25T20:10:38.221Z,36.40
2022-09-25T20:13:06.110Z,36.84
2022-09-25T20:15:33.697Z,36.73
2022-09-25T20:18:00.214Z,36.32
2022-09-25T20:20:29.329Z,36.58
2022-09-25T20:22:58.553Z,36.57
2022-09-25T20:25:28.563Z,36.84
2022-09-25T20:27:55.377Z,36.47
2022-09-25T20:30:24.741Z,36.77
2022-09-25T20:32:52.199Z,36.45
2022-09-25T20:35:19.173Z,36.95
2022-09-25T20:37:48.860Z,36.84
2022-09-25T20:40:15.806Z,37.15
2022-09-25T20:42:42.720Z,36.72
2022-09-25T20:45:10.066Z,36.75
2022-09-25T20:47:38.017Z,36.85
2022-09-25T20:50:07.627Z,37.33
2022-09-25T20:52:34.752Z,37.33
2022-09-25T20:55:01.167Z,36.81
2022-09-25T20:57:31.079Z,36.94
2022-09-25T20:59:57.534Z,37.34
2022-09-25T21:02:25.005Z,37.00
2022-09-25T21:04:53.407Z,37.25
2022-09-25T21:07:20.598Z,37.33
2022-09-25T21:09:46.968Z,37.07
2022-09-25T21:12:13.999Z,37.45
2022-09-25T21:14:40.571Z,37.35
2022-09-25T21:17:07.000Z,37.41
2022-09-25T21:19:33.397Z,37.94
2022-09-25T21:21:59.822Z,37.54
2022-09-25T21:24:26.208Z,37.24
2022-09-25T21:26:52.570Z,37.45
2022-09-25T21:29:19.346Z,37.18
2022-09-25T21:31:49.969Z,37.28
2022-09-25T21:34:17.051Z,37.58
2022-09-25T21:36:43.913Z,37.24
2022-09-25T21:39:10.477Z,37.32
2022-09-25T21:41:37.867Z,37.33
2022-09-25T21:44:07.514Z,37.31
2022-09-25T21:46:34.816Z,37.29
2022-09-25T21:49:03.928Z,37.23
2022-09-25T21:51:33.134Z,37.17
2022-09-25T21:54:00.994Z,37.31
2022-09-25T21:56:29.779Z,37.11
2022-09-25T21:58:57.517Z,37.37
2022-09-25T22:01:29.154Z,36.95
2022-09-25T22:03:58.316Z,36.83
2022-09-25T22:06:27.992Z,37.14
2022-09-25T22:08:59.521Z,37.00
2022-09-25T22:11:27.003Z,36.91
2022-09-25T22:13:55.261Z,37.09
2022-09-25T22:16:24.523Z,37.25
2022-09-25T22:19:00.595Z,37.00
2022-09-25T22:21:29.984Z,36.91
2022-09-25T22:23:57.155Z,37.03
2022-09-25T22:26:24.399Z,36.89
2022-09-25T22:28:51.145Z,37.24
2022-09-25T22:31:23.973Z,36.74
2022-09-25T22:33:55.622Z,37.02
2022-09-25T22:36:22.215Z,37.17
2022-09-25T22:38:48.595Z,36.82
2022-09-25T22:41:15.258Z,36.84
2022-09-25T22:43:44.759Z,37.02
2022-09-25T22:46:13.313Z,36.68
2022-09-25T22:48:40.750Z,37.00
2022-09-25T22:51:12.582Z,37.06
2022-09-25T22:53:39.667Z,36.95
2022-09-25T22:56:09.304Z,36.82
2022-09-25T22:58:35.900Z,36.90
2022-09-25T23:01:06.061Z,36.75
2022-09-25T23:03:32.618Z,36.78
2022-09-25T23:06:00.681Z,36.69
2022-09-25T23:08:27.166Z,36.53
2022-09-25T23:11:06.655Z,36.90
2022-09-25T23:13:34.499Z,37.07
2022-09-25T23:16:07.149Z,36.74
2022-09-25T23:18:35.622Z,36.79
2022-09-25T23:21:02.075Z,36.81
2022-09-25T23:23:28.742Z,36.70
2022-09-25T23:25:55.121Z,36.82
2022-09-25T23:28:22.038Z,36.65
2022-09-25T23:30:48.472Z,36.18
2022-09-25T23:33:14.890Z,36.58
2022-09-25T23:35:41.297Z,36.58
2022-09-25T23:38:07.725Z,36.42
2022-09-25T23:40:34.200Z,36.58
2022-09-25T23:43:01.850Z,36.43
2022-09-25T23:45:28.387Z,36.62
2022-09-25T23:47:54.923Z,36.66
2022-09-25T23:50:21.307Z,36.62
2022-09-25T23:52:47.822Z,36.41
2022-09-25T23:55:14.311Z,36.38
2022-09-25T23:57:40.714Z,36.69
